sensor_id;sensor_type;location;lat;lon;timestamp;P1;durP1;ratioP1;P2;durP2;ratioP2
72369;SDS011;60343;-32.030;115.880;2023-09-18T00:00:30;4.38;;;0.80;;
72369;SDS011;60343;-32.030;115.880;2023-09-18T00:03:08;5.57;;;1.02;;
72369;SDS011;60343;-32.030;115.880;2023-09-18T00:05:44;7.28;;;1.25;;
72369;SDS011;60343;-32.030;115.880;2023-09-18T00:08:19;8.32;;;1.30;;
72369;SDS011;60343;-32.030;115.880;2023-09-18T00:11:01;7.53;;;1.35;;
72369;SDS011;60343;-32.030;115.880;2023-09-18T00:13:36;5.38;;;1.00;;
72369;SDS011;60343;-32.030;115.880;2023-09-18T00:16:11;4.25;;;1.00;;
72369;SDS011;60343;-32.030;115.880;2023-09-18T00:18:46;5.72;;;1.00;;
72369;SDS011;60343;-32.030;115.880;2023-09-18T00:21:21;4.65;;;1.45;;
72369;SDS011;60343;-32.030;115.880;2023-09-18T00:23:57;6.03;;;1.35;;
72369;SDS011;60343;-32.030;115.880;2023-09-18T00:26:40;7.25;;;1.80;;
72369;SDS011;60343;-32.030;115.880;2023-09-18T00:29:15;6.47;;;1.10;;
72369;SDS011;60343;-32.030;115.880;2023-09-18T00:31:50;5.03;;;0.90;;
72369;SDS011;60343;-32.030;115.880;2023-09-18T00:34:25;7.30;;;1.27;;
72369;SDS011;60343;-32.030;115.880;2023-09-18T00:37:02;5.93;;;1.23;;
72369;SDS011;60343;-32.030;115.880;2023-09-18T00:39:38;7.00;;;1.00;;
72369;SDS011;60343;-32.030;115.880;2023-09-18T00:42:20;6.43;;;1.13;;
72369;SDS011;60343;-32.030;115.880;2023-09-18T00:44:55;5.60;;;1.20;;
72369;SDS011;60343;-32.030;115.880;2023-09-18T00:47:31;4.95;;;1.00;;
72369;SDS011;60343;-32.030;115.880;2023-09-18T00:50:07;7.72;;;0.98;;
72369;SDS011;60343;-32.030;115.880;2023-09-18T00:52:46;5.22;;;0.98;;
72369;SDS011;60343;-32.030;115.880;2023-09-18T00:55:21;3.20;;;0.80;;
72369;SDS011;60343;-32.030;115.880;2023-09-18T00:58:03;11.57;;;1.27;;
72369;SDS011;60343;-32.030;115.880;2023-09-18T01:00:38;7.45;;;1.05;;
72369;SDS011;60343;-32.030;115.880;2023-09-18T01:03:16;5.32;;;0.80;;
72369;SDS011;60343;-32.030;115.880;2023-09-18T01:05:54;7.57;;;0.80;;
72369;SDS011;60343;-32.030;115.880;2023-09-18T01:08:29;7.35;;;1.00;;
72369;SDS011;60343;-32.030;115.880;2023-09-18T01:11:05;8.43;;;1.20;;
72369;SDS011;60343;-32.030;115.880;2023-09-18T01:13:54;4.13;;;0.90;;
72369;SDS011;60343;-32.030;115.880;2023-09-18T01:16:36;3.42;;;0.80;;
72369;SDS011;60343;-32.030;115.880;2023-09-18T01:19:17;4.78;;;0.90;;
72369;SDS011;60343;-32.030;115.880;2023-09-18T01:22:11;3.92;;;0.70;;
72369;SDS011;60343;-32.030;115.880;2023-09-18T01:24:53;4.10;;;0.68;;
72369;SDS011;60343;-32.030;115.880;2023-09-18T01:27:29;2.78;;;0.50;;
72369;SDS011;60343;-32.030;115.880;2023-09-18T01:30:04;5.35;;;0.80;;
72369;SDS011;60343;-32.030;115.880;2023-09-18T01:32:41;4.93;;;0.70;;
72369;SDS011;60343;-32.030;115.880;2023-09-18T01:35:19;4.97;;;0.47;;
72369;SDS011;60343;-32.030;115.880;2023-09-18T01:37:56;3.13;;;0.30;;
72369;SDS011;60343;-32.030;115.880;2023-09-18T01:40:38;2.38;;;0.40;;
72369;SDS011;60343;-32.030;115.880;2023-09-18T01:43:13;1.95;;;0.20;;
72369;SDS011;60343;-32.030;115.880;2023-09-18T01:45:48;2.60;;;0.30;;
72369;SDS011;60343;-32.030;115.880;2023-09-18T01:48:24;2.70;;;0.35;;
72369;SDS011;60343;-32.030;115.880;2023-09-18T01:50:59;1.20;;;0.20;;
72369;SDS011;60343;-32.030;115.880;2023-09-18T01:53:35;4.03;;;0.43;;
72369;SDS011;60343;-32.030;115.880;2023-09-18T01:56:16;4.40;;;0.60;;
72369;SDS011;60343;-32.030;115.880;2023-09-18T01:58:51;3.08;;;0.30;;
72369;SDS011;60343;-32.030;115.880;2023-09-18T02:01:26;3.55;;;0.32;;
72369;SDS011;60343;-32.030;115.880;2023-09-18T02:04:04;3.22;;;0.47;;
72369;SDS011;60343;-32.030;115.880;2023-09-18T02:06:39;1.95;;;0.30;;
72369;SDS011;60343;-32.030;115.880;2023-09-18T02:09:15;4.72;;;0.40;;
72369;SDS011;60343;-32.030;115.880;2023-09-18T02:11:56;1.80;;;0.35;;
72369;SDS011;60343;-32.030;115.880;2023-09-18T02:14:32;5.70;;;0.32;;
72369;SDS011;60343;-32.030;115.880;2023-09-18T02:17:07;2.83;;;0.47;;
72369;SDS011;60343;-32.030;115.880;2023-09-18T02:19:42;3.45;;;0.40;;
72369;SDS011;60343;-32.030;115.880;2023-09-18T02:22:17;4.22;;;0.65;;
72369;SDS011;60343;-32.030;115.880;2023-09-18T02:24:52;1.02;;;0.15;;
72369;SDS011;60343;-32.030;115.880;2023-09-18T02:27:33;2.83;;;0.50;;
72369;SDS011;60343;-32.030;115.880;2023-09-18T02:30:10;6.70;;;0.73;;
72369;SDS011;60343;-32.030;115.880;2023-09-18T02:32:46;3.35;;;0.38;;
72369;SDS011;60343;-32.030;115.880;2023-09-18T02:35:21;6.18;;;0.45;;
72369;SDS011;60343;-32.030;115.880;2023-09-18T02:37:56;4.82;;;0.43;;
72369;SDS011;60343;-32.030;115.880;2023-09-18T02:40:32;2.78;;;0.32;;
72369;SDS011;60343;-32.030;115.880;2023-09-18T02:43:13;2.88;;;0.30;;
72369;SDS011;60343;-32.030;115.880;2023-09-18T02:45:48;2.13;;;0.20;;
72369;SDS011;60343;-32.030;115.880;2023-09-18T02:48:24;1.02;;;0.20;;
72369;SDS011;60343;-32.030;115.880;2023-09-18T02:50:59;1.90;;;0.22;;
72369;SDS011;60343;-32.030;115.880;2023-09-18T02:53:35;1.75;;;0.25;;
72369;SDS011;60343;-32.030;115.880;2023-09-18T02:56:10;1.40;;;0.17;;
72369;SDS011;60343;-32.030;115.880;2023-09-18T02:58:51;1.75;;;0.20;;
72369;SDS011;60343;-32.030;115.880;2023-09-18T03:01:26;4.35;;;0.40;;
72369;SDS011;60343;-32.030;115.880;2023-09-18T03:04:02;2.60;;;0.20;;
72369;SDS011;60343;-32.030;115.880;2023-09-18T03:06:38;3.80;;;0.30;;
72369;SDS011;60343;-32.030;115.880;2023-09-18T03:09:13;3.30;;;0.30;;
72369;SDS011;60343;-32.030;115.880;2023-09-18T03:11:49;1.20;;;0.20;;
72369;SDS011;60343;-32.030;115.880;2023-09-18T03:14:30;2.25;;;0.28;;
72369;SDS011;60343;-32.030;115.880;2023-09-18T03:17:05;1.70;;;0.38;;
72369;SDS011;60343;-32.030;115.880;2023-09-18T03:19:41;1.50;;;0.20;;
72369;SDS011;60343;-32.030;115.880;2023-09-18T03:22:16;3.88;;;0.50;;
72369;SDS011;60343;-32.030;115.880;2023-09-18T03:24:51;3.47;;;0.40;;
72369;SDS011;60343;-32.030;115.880;2023-09-18T03:27:26;2.45;;;0.30;;
72369;SDS011;60343;-32.030;115.880;2023-09-18T03:30:08;2.83;;;0.20;;
72369;SDS011;60343;-32.030;115.880;2023-09-18T03:32:44;2.45;;;0.30;;
72369;SDS011;60343;-32.030;115.880;2023-09-18T03:35:21;4.28;;;0.20;;
72369;SDS011;60343;-32.030;115.880;2023-09-18T03:37:56;2.72;;;0.22;;
72369;SDS011;60343;-32.030;115.880;2023-09-18T03:40:31;1.75;;;0.20;;
72369;SDS011;60343;-32.030;115.880;2023-09-18T03:43:07;1.13;;;0.20;;
72369;SDS011;60343;-32.030;115.880;2023-09-18T03:45:48;3.58;;;0.28;;
72369;SDS011;60343;-32.030;115.880;2023-09-18T03:48:23;2.88;;;0.20;;
72369;SDS011;60343;-32.030;115.880;2023-09-18T03:51:03;2.67;;;0.10;;
72369;SDS011;60343;-32.030;115.880;2023-09-18T03:53:41;1.65;;;0.47;;
72369;SDS011;60343;-32.030;115.880;2023-09-18T03:56:17;2.92;;;0.22;;
72369;SDS011;60343;-32.030;115.880;2023-09-18T03:58:52;2.28;;;0.20;;
72369;SDS011;60343;-32.030;115.880;2023-09-18T04:01:33;3.05;;;0.45;;
72369;SDS011;60343;-32.030;115.880;2023-09-18T04:04:09;2.92;;;0.22;;
72369;SDS011;60343;-32.030;115.880;2023-09-18T04:06:44;1.55;;;0.20;;
72369;SDS011;60343;-32.030;115.880;2023-09-18T04:09:19;5.13;;;0.40;;
72369;SDS011;60343;-32.030;115.880;2023-09-18T04:11:55;2.60;;;0.30;;
72369;SDS011;60343;-32.030;115.880;2023-09-18T04:14:34;3.85;;;0.30;;
72369;SDS011;60343;-32.030;115.880;2023-09-18T04:17:20;2.65;;;0.20;;
72369;SDS011;60343;-32.030;115.880;2023-09-18T04:19:55;4.50;;;0.30;;
72369;SDS011;60343;-32.030;115.880;2023-09-18T04:22:30;2.63;;;0.20;;
72369;SDS011;60343;-32.030;115.880;2023-09-18T04:25:07;1.92;;;0.20;;
72369;SDS011;60343;-32.030;115.880;2023-09-18T04:27:42;7.47;;;0.47;;
72369;SDS011;60343;-32.030;115.880;2023-09-18T04:30:18;5.93;;;0.70;;
72369;SDS011;60343;-32.030;115.880;2023-09-18T04:32:59;3.40;;;0.30;;
72369;SDS011;60343;-32.030;115.880;2023-09-18T04:35:35;1.95;;;0.20;;
72369;SDS011;60343;-32.030;115.880;2023-09-18T04:38:10;1.80;;;0.13;;
72369;SDS011;60343;-32.030;115.880;2023-09-18T04:40:46;3.22;;;0.82;;
72369;SDS011;60343;-32.030;115.880;2023-09-18T04:43:21;2.63;;;0.20;;
72369;SDS011;60343;-32.030;115.880;2023-09-18T04:45:56;2.10;;;0.25;;
72369;SDS011;60343;-32.030;115.880;2023-09-18T04:48:37;3.83;;;0.47;;
72369;SDS011;60343;-32.030;115.880;2023-09-18T04:51:13;3.97;;;0.28;;
72369;SDS011;60343;-32.030;115.880;2023-09-18T04:53:48;3.30;;;0.30;;
72369;SDS011;60343;-32.030;115.880;2023-09-18T04:56:23;2.15;;;0.20;;
72369;SDS011;60343;-32.030;115.880;2023-09-18T04:58:59;1.80;;;0.30;;
72369;SDS011;60343;-32.030;115.880;2023-09-18T05:01:34;3.40;;;0.30;;
72369;SDS011;60343;-32.030;115.880;2023-09-18T05:04:16;2.35;;;0.20;;
72369;SDS011;60343;-32.030;115.880;2023-09-18T05:06:51;1.13;;;0.10;;
72369;SDS011;60343;-32.030;115.880;2023-09-18T05:09:28;4.93;;;0.25;;
72369;SDS011;60343;-32.030;115.880;2023-09-18T05:12:04;2.88;;;0.10;;
72369;SDS011;60343;-32.030;115.880;2023-09-18T05:14:42;2.08;;;0.15;;
72369;SDS011;60343;-32.030;115.880;2023-09-18T05:17:17;2.97;;;0.30;;
72369;SDS011;60343;-32.030;115.880;2023-09-18T05:19:58;2.60;;;0.30;;
72369;SDS011;60343;-32.030;115.880;2023-09-18T05:22:34;1.80;;;0.20;;
72369;SDS011;60343;-32.030;115.880;2023-09-18T05:25:09;2.40;;;0.22;;
72369;SDS011;60343;-32.030;115.880;2023-09-18T05:27:45;1.73;;;0.20;;
72369;SDS011;60343;-32.030;115.880;2023-09-18T05:30:23;1.40;;;0.17;;
72369;SDS011;60343;-32.030;115.880;2023-09-18T05:33:00;3.38;;;0.20;;
72369;SDS011;60343;-32.030;115.880;2023-09-18T05:35:43;2.28;;;0.20;;
72369;SDS011;60343;-32.030;115.880;2023-09-18T05:38:18;1.15;;;0.15;;
72369;SDS011;60343;-32.030;115.880;2023-09-18T05:40:53;5.90;;;0.60;;
72369;SDS011;60343;-32.030;115.880;2023-09-18T05:43:28;3.22;;;0.30;;
72369;SDS011;60343;-32.030;115.880;2023-09-18T05:46:04;5.95;;;0.50;;
72369;SDS011;60343;-32.030;115.880;2023-09-18T05:48:39;2.28;;;0.30;;
72369;SDS011;60343;-32.030;115.880;2023-09-18T05:51:20;3.47;;;0.20;;
72369;SDS011;60343;-32.030;115.880;2023-09-18T05:53:56;2.88;;;0.30;;
72369;SDS011;60343;-32.030;115.880;2023-09-18T05:56:31;2.20;;;0.17;;
72369;SDS011;60343;-32.030;115.880;2023-09-18T05:59:06;5.30;;;0.40;;
72369;SDS011;60343;-32.030;115.880;2023-09-18T06:01:42;3.33;;;0.50;;
72369;SDS011;60343;-32.030;115.880;2023-09-18T06:04:33;3.15;;;0.30;;
72369;SDS011;60343;-32.030;115.880;2023-09-18T06:07:14;4.55;;;0.30;;
72369;SDS011;60343;-32.030;115.880;2023-09-18T06:09:49;8.70;;;0.47;;
72369;SDS011;60343;-32.030;115.880;2023-09-18T06:12:24;3.28;;;0.20;;
72369;SDS011;60343;-32.030;115.880;2023-09-18T06:14:59;4.00;;;0.30;;
72369;SDS011;60343;-32.030;115.880;2023-09-18T06:17:36;6.25;;;0.45;;
72369;SDS011;60343;-32.030;115.880;2023-09-18T06:20:12;2.67;;;0.38;;
72369;SDS011;60343;-32.030;115.880;2023-09-18T06:22:54;1.83;;;0.40;;
72369;SDS011;60343;-32.030;115.880;2023-09-18T06:25:29;3.85;;;0.30;;
72369;SDS011;60343;-32.030;115.880;2023-09-18T06:28:05;5.78;;;0.35;;
72369;SDS011;60343;-32.030;115.880;2023-09-18T06:30:40;5.70;;;0.50;;
72369;SDS011;60343;-32.030;115.880;2023-09-18T06:33:15;3.90;;;0.40;;
72369;SDS011;60343;-32.030;115.880;2023-09-18T06:35:50;2.80;;;0.20;;
72369;SDS011;60343;-32.030;115.880;2023-09-18T06:38:31;3.25;;;0.40;;
72369;SDS011;60343;-32.030;115.880;2023-09-18T06:41:07;3.08;;;0.43;;
72369;SDS011;60343;-32.030;115.880;2023-09-18T06:43:42;5.97;;;0.55;;
72369;SDS011;60343;-32.030;115.880;2023-09-18T06:46:17;4.15;;;0.40;;
72369;SDS011;60343;-32.030;115.880;2023-09-18T06:48:52;6.93;;;0.60;;
72369;SDS011;60343;-32.030;115.880;2023-09-18T06:51:27;4.10;;;0.70;;
72369;SDS011;60343;-32.030;115.880;2023-09-18T06:54:08;5.18;;;0.50;;
72369;SDS011;60343;-32.030;115.880;2023-09-18T06:56:43;7.32;;;0.90;;
72369;SDS011;60343;-32.030;115.880;2023-09-18T06:59:19;5.40;;;0.75;;
72369;SDS011;60343;-32.030;115.880;2023-09-18T07:01:54;7.55;;;0.75;;
72369;SDS011;60343;-32.030;115.880;2023-09-18T07:04:29;8.23;;;0.80;;
72369;SDS011;60343;-32.030;115.880;2023-09-18T07:07:10;4.88;;;0.45;;
72369;SDS011;60343;-32.030;115.880;2023-09-18T07:09:57;6.18;;;0.68;;
72369;SDS011;60343;-32.030;115.880;2023-09-18T07:12:32;6.15;;;0.80;;
72369;SDS011;60343;-32.030;115.880;2023-09-18T07:15:08;3.72;;;0.55;;
72369;SDS011;60343;-32.030;115.880;2023-09-18T07:17:43;5.22;;;0.73;;
72369;SDS011;60343;-32.030;115.880;2023-09-18T07:20:18;5.70;;;0.63;;
72369;SDS011;60343;-32.030;115.880;2023-09-18T07:22:54;6.30;;;0.90;;
72369;SDS011;60343;-32.030;115.880;2023-09-18T07:25:35;9.52;;;0.73;;
72369;SDS011;60343;-32.030;115.880;2023-09-18T07:28:11;7.07;;;0.60;;
72369;SDS011;60343;-32.030;115.880;2023-09-18T07:30:46;7.55;;;0.73;;
72369;SDS011;60343;-32.030;115.880;2023-09-18T07:33:21;6.07;;;0.50;;
72369;SDS011;60343;-32.030;115.880;2023-09-18T07:35:57;11.85;;;1.10;;
72369;SDS011;60343;-32.030;115.880;2023-09-18T07:38:32;4.00;;;0.50;;
72369;SDS011;60343;-32.030;115.880;2023-09-18T07:41:15;3.88;;;0.40;;
72369;SDS011;60343;-32.030;115.880;2023-09-18T07:43:51;3.72;;;0.88;;
72369;SDS011;60343;-32.030;115.880;2023-09-18T07:46:26;2.45;;;0.80;;
72369;SDS011;60343;-32.030;115.880;2023-09-18T07:49:01;6.32;;;0.80;;
72369;SDS011;60343;-32.030;115.880;2023-09-18T07:51:37;6.30;;;0.50;;
72369;SDS011;60343;-32.030;115.880;2023-09-18T07:54:14;4.47;;;0.50;;
72369;SDS011;60343;-32.030;115.880;2023-09-18T07:56:55;5.25;;;0.38;;
72369;SDS011;60343;-32.030;115.880;2023-09-18T07:59:35;6.30;;;0.60;;
72369;SDS011;60343;-32.030;115.880;2023-09-18T08:02:15;5.35;;;0.70;;
72369;SDS011;60343;-32.030;115.880;2023-09-18T08:04:50;3.22;;;0.50;;
72369;SDS011;60343;-32.030;115.880;2023-09-18T08:07:25;7.32;;;0.75;;
72369;SDS011;60343;-32.030;115.880;2023-09-18T08:10:01;2.65;;;0.40;;
72369;SDS011;60343;-32.030;115.880;2023-09-18T08:12:44;4.07;;;0.50;;
72369;SDS011;60343;-32.030;115.880;2023-09-18T08:15:20;5.03;;;0.57;;
72369;SDS011;60343;-32.030;115.880;2023-09-18T08:17:56;5.88;;;0.60;;
72369;SDS011;60343;-32.030;115.880;2023-09-18T08:20:31;4.03;;;0.50;;
72369;SDS011;60343;-32.030;115.880;2023-09-18T08:23:06;5.53;;;0.70;;
72369;SDS011;60343;-32.030;115.880;2023-09-18T08:25:41;7.20;;;0.68;;
72369;SDS011;60343;-32.030;115.880;2023-09-18T08:28:23;8.07;;;1.00;;
72369;SDS011;60343;-32.030;115.880;2023-09-18T08:30:59;8.07;;;0.80;;
72369;SDS011;60343;-32.030;115.880;2023-09-18T08:33:35;6.43;;;0.60;;
72369;SDS011;60343;-32.030;115.880;2023-09-18T08:36:10;8.05;;;0.70;;
72369;SDS011;60343;-32.030;115.880;2023-09-18T08:38:45;3.33;;;0.40;;
72369;SDS011;60343;-32.030;115.880;2023-09-18T08:41:20;9.05;;;0.80;;
72369;SDS011;60343;-32.030;115.880;2023-09-18T08:44:04;7.88;;;1.00;;
72369;SDS011;60343;-32.030;115.880;2023-09-18T08:46:42;6.60;;;0.63;;
72369;SDS011;60343;-32.030;115.880;2023-09-18T08:49:18;3.35;;;0.50;;
72369;SDS011;60343;-32.030;115.880;2023-09-18T08:51:55;5.65;;;0.70;;
72369;SDS011;60343;-32.030;115.880;2023-09-18T08:54:32;8.05;;;0.70;;
72369;SDS011;60343;-32.030;115.880;2023-09-18T08:57:07;3.55;;;0.38;;
72369;SDS011;60343;-32.030;115.880;2023-09-18T08:59:48;5.03;;;0.70;;
72369;SDS011;60343;-32.030;115.880;2023-09-18T09:02:32;3.97;;;0.60;;
72369;SDS011;60343;-32.030;115.880;2023-09-18T09:05:07;4.40;;;0.60;;
72369;SDS011;60343;-32.030;115.880;2023-09-18T09:07:42;4.90;;;0.60;;
72369;SDS011;60343;-32.030;115.880;2023-09-18T09:10:17;3.92;;;0.52;;
72369;SDS011;60343;-32.030;115.880;2023-09-18T09:12:54;3.38;;;0.63;;
72369;SDS011;60343;-32.030;115.880;2023-09-18T09:15:32;5.63;;;0.52;;
72369;SDS011;60343;-32.030;115.880;2023-09-18T09:18:19;7.47;;;0.95;;
72369;SDS011;60343;-32.030;115.880;2023-09-18T09:20:56;4.30;;;0.60;;
72369;SDS011;60343;-32.030;115.880;2023-09-18T09:23:45;5.50;;;0.63;;
72369;SDS011;60343;-32.030;115.880;2023-09-18T09:26:22;5.60;;;0.63;;
72369;SDS011;60343;-32.030;115.880;2023-09-18T09:28:59;5.47;;;0.80;;
72369;SDS011;60343;-32.030;115.880;2023-09-18T09:31:56;7.22;;;0.50;;
72369;SDS011;60343;-32.030;115.880;2023-09-18T09:34:45;6.38;;;1.00;;
72369;SDS011;60343;-32.030;115.880;2023-09-18T09:37:20;4.15;;;0.55;;
72369;SDS011;60343;-32.030;115.880;2023-09-18T09:40:05;5.78;;;1.15;;
72369;SDS011;60343;-32.030;115.880;2023-09-18T09:42:41;9.15;;;0.75;;
72369;SDS011;60343;-32.030;115.880;2023-09-18T09:45:17;7.82;;;0.60;;
72369;SDS011;60343;-32.030;115.880;2023-09-18T09:47:59;6.00;;;0.95;;
72369;SDS011;60343;-32.030;115.880;2023-09-18T09:50:43;5.57;;;0.95;;
72369;SDS011;60343;-32.030;115.880;2023-09-18T09:53:24;3.58;;;0.43;;
72369;SDS011;60343;-32.030;115.880;2023-09-18T09:56:18;6.15;;;0.50;;
72369;SDS011;60343;-32.030;115.880;2023-09-18T09:59:02;7.13;;;0.50;;
72369;SDS011;60343;-32.030;115.880;2023-09-18T10:01:39;4.10;;;0.60;;
72369;SDS011;60343;-32.030;115.880;2023-09-18T10:04:21;5.35;;;0.60;;
72369;SDS011;60343;-32.030;115.880;2023-09-18T10:07:02;5.97;;;0.68;;
72369;SDS011;60343;-32.030;115.880;2023-09-18T10:09:42;8.60;;;1.00;;
72369;SDS011;60343;-32.030;115.880;2023-09-18T10:12:18;5.57;;;0.63;;
72369;SDS011;60343;-32.030;115.880;2023-09-18T10:14:55;6.18;;;0.88;;
72369;SDS011;60343;-32.030;115.880;2023-09-18T10:17:31;4.43;;;0.63;;
72369;SDS011;60343;-32.030;115.880;2023-09-18T10:20:17;4.00;;;0.60;;
72369;SDS011;60343;-32.030;115.880;2023-09-18T10:22:57;3.70;;;0.70;;
72369;SDS011;60343;-32.030;115.880;2023-09-18T10:25:35;3.50;;;0.40;;
72369;SDS011;60343;-32.030;115.880;2023-09-18T10:28:11;5.38;;;0.70;;
72369;SDS011;60343;-32.030;115.880;2023-09-18T10:30:47;4.90;;;0.50;;
72369;SDS011;60343;-32.030;115.880;2023-09-18T10:33:25;5.70;;;0.63;;
72369;SDS011;60343;-32.030;115.880;2023-09-18T10:36:07;5.28;;;0.63;;
72369;SDS011;60343;-32.030;115.880;2023-09-18T10:38:44;3.60;;;0.85;;
72369;SDS011;60343;-32.030;115.880;2023-09-18T10:41:25;4.22;;;0.60;;
72369;SDS011;60343;-32.030;115.880;2023-09-18T10:44:08;4.25;;;0.65;;
72369;SDS011;60343;-32.030;115.880;2023-09-18T10:46:45;6.45;;;0.80;;
72369;SDS011;60343;-32.030;115.880;2023-09-18T10:49:21;6.50;;;1.20;;
72369;SDS011;60343;-32.030;115.880;2023-09-18T10:52:03;6.40;;;1.20;;
72369;SDS011;60343;-32.030;115.880;2023-09-18T10:54:44;5.55;;;1.05;;
72369;SDS011;60343;-32.030;115.880;2023-09-18T10:57:19;5.25;;;0.50;;
72369;SDS011;60343;-32.030;115.880;2023-09-18T10:59:55;3.50;;;0.40;;
72369;SDS011;60343;-32.030;115.880;2023-09-18T11:02:40;4.28;;;0.60;;
72369;SDS011;60343;-32.030;115.880;2023-09-18T11:05:21;4.50;;;0.60;;
72369;SDS011;60343;-32.030;115.880;2023-09-18T11:11:07;4.07;;;0.52;;
72369;SDS011;60343;-32.030;115.880;2023-09-18T11:13:46;8.15;;;0.77;;
72369;SDS011;60343;-32.030;115.880;2023-09-18T11:19:19;5.65;;;0.70;;
72369;SDS011;60343;-32.030;115.880;2023-09-18T11:22:06;8.25;;;1.30;;
72369;SDS011;60343;-32.030;115.880;2023-09-18T11:24:47;9.52;;;1.27;;
72369;SDS011;60343;-32.030;115.880;2023-09-18T11:27:24;6.82;;;0.63;;
72369;SDS011;60343;-32.030;115.880;2023-09-18T11:30:16;4.10;;;0.50;;
72369;SDS011;60343;-32.030;115.880;2023-09-18T11:32:51;4.25;;;0.50;;
72369;SDS011;60343;-32.030;115.880;2023-09-18T11:35:27;5.47;;;0.63;;
72369;SDS011;60343;-32.030;115.880;2023-09-18T11:38:06;6.55;;;0.65;;
72369;SDS011;60343;-32.030;115.880;2023-09-18T11:40:48;13.70;;;0.70;;
72369;SDS011;60343;-32.030;115.880;2023-09-18T11:43:25;5.30;;;0.57;;
72369;SDS011;60343;-32.030;115.880;2023-09-18T11:45:57;7.55;;;0.80;;
72369;SDS011;60343;-32.030;115.880;2023-09-18T11:48:33;5.53;;;0.50;;
72369;SDS011;60343;-32.030;115.880;2023-09-18T11:51:08;4.55;;;0.52;;
72369;SDS011;60343;-32.030;115.880;2023-09-18T11:53:45;7.43;;;0.77;;
72369;SDS011;60343;-32.030;115.880;2023-09-18T11:56:29;5.78;;;0.90;;
72369;SDS011;60343;-32.030;115.880;2023-09-18T11:59:04;6.07;;;0.70;;
72369;SDS011;60343;-32.030;115.880;2023-09-18T12:01:39;7.13;;;0.63;;
72369;SDS011;60343;-32.030;115.880;2023-09-18T12:04:15;5.90;;;0.70;;
72369;SDS011;60343;-32.030;115.880;2023-09-18T12:07:00;4.07;;;0.68;;
72369;SDS011;60343;-32.030;115.880;2023-09-18T12:09:36;7.18;;;0.80;;
72369;SDS011;60343;-32.030;115.880;2023-09-18T12:12:18;4.30;;;0.43;;
72369;SDS011;60343;-32.030;115.880;2023-09-18T12:14:55;6.35;;;0.70;;
72369;SDS011;60343;-32.030;115.880;2023-09-18T12:17:30;4.88;;;0.55;;
72369;SDS011;60343;-32.030;115.880;2023-09-18T12:20:06;4.15;;;0.52;;
72369;SDS011;60343;-32.030;115.880;2023-09-18T12:22:48;4.50;;;0.68;;
72369;SDS011;60343;-32.030;115.880;2023-09-18T12:25:24;6.03;;;0.75;;
72369;SDS011;60343;-32.030;115.880;2023-09-18T12:28:05;5.90;;;0.80;;
72369;SDS011;60343;-32.030;115.880;2023-09-18T12:30:40;5.75;;;0.60;;
72369;SDS011;60343;-32.030;115.880;2023-09-18T12:33:18;3.90;;;0.60;;
72369;SDS011;60343;-32.030;115.880;2023-09-18T12:35:53;6.68;;;0.95;;
72369;SDS011;60343;-32.030;115.880;2023-09-18T12:38:36;6.60;;;0.80;;
72369;SDS011;60343;-32.030;115.880;2023-09-18T12:41:15;5.28;;;0.73;;
72369;SDS011;60343;-32.030;115.880;2023-09-18T12:43:56;7.07;;;0.73;;
72369;SDS011;60343;-32.030;115.880;2023-09-18T12:46:32;4.22;;;0.82;;
72369;SDS011;60343;-32.030;115.880;2023-09-18T12:49:18;4.72;;;0.60;;
72369;SDS011;60343;-32.030;115.880;2023-09-18T12:51:55;3.03;;;0.50;;
72369;SDS011;60343;-32.030;115.880;2023-09-18T12:54:39;4.47;;;0.73;;
72369;SDS011;60343;-32.030;115.880;2023-09-18T12:57:20;2.55;;;0.63;;
72369;SDS011;60343;-32.030;115.880;2023-09-18T13:00:07;4.38;;;0.73;;
72369;SDS011;60343;-32.030;115.880;2023-09-18T13:02:46;6.70;;;0.90;;
72369;SDS011;60343;-32.030;115.880;2023-09-18T13:05:21;5.78;;;0.60;;
72369;SDS011;60343;-32.030;115.880;2023-09-18T13:08:02;3.58;;;1.00;;
72369;SDS011;60343;-32.030;115.880;2023-09-18T13:10:42;2.22;;;0.55;;
72369;SDS011;60343;-32.030;115.880;2023-09-18T13:13:19;5.93;;;0.63;;
72369;SDS011;60343;-32.030;115.880;2023-09-18T13:16:04;3.45;;;0.63;;
72369;SDS011;60343;-32.030;115.880;2023-09-18T13:18:41;5.53;;;0.55;;
72369;SDS011;60343;-32.030;115.880;2023-09-18T13:21:19;4.05;;;0.40;;
72369;SDS011;60343;-32.030;115.880;2023-09-18T13:23:55;5.70;;;0.70;;
72369;SDS011;60343;-32.030;115.880;2023-09-18T13:26:30;1.63;;;0.40;;
72369;SDS011;60343;-32.030;115.880;2023-09-18T13:29:05;2.40;;;0.30;;
72369;SDS011;60343;-32.030;115.880;2023-09-18T13:31:46;4.35;;;0.57;;
72369;SDS011;60343;-32.030;115.880;2023-09-18T13:34:22;6.00;;;0.57;;
72369;SDS011;60343;-32.030;115.880;2023-09-18T13:36:57;4.47;;;0.63;;
72369;SDS011;60343;-32.030;115.880;2023-09-18T13:39:32;4.38;;;0.50;;
72369;SDS011;60343;-32.030;115.880;2023-09-18T13:42:07;2.10;;;0.30;;
72369;SDS011;60343;-32.030;115.880;2023-09-18T13:44:42;5.75;;;0.50;;
72369;SDS011;60343;-32.030;115.880;2023-09-18T13:47:24;7.10;;;0.50;;
72369;SDS011;60343;-32.030;115.880;2023-09-18T13:49:59;5.10;;;0.60;;
72369;SDS011;60343;-32.030;115.880;2023-09-18T13:52:36;1.67;;;0.25;;
72369;SDS011;60343;-32.030;115.880;2023-09-18T13:55:12;4.45;;;0.60;;
72369;SDS011;60343;-32.030;115.880;2023-09-18T13:57:48;3.70;;;0.20;;
72369;SDS011;60343;-32.030;115.880;2023-09-18T14:00:23;2.90;;;0.45;;
72369;SDS011;60343;-32.030;115.880;2023-09-18T14:03:04;4.47;;;0.60;;
72369;SDS011;60343;-32.030;115.880;2023-09-18T14:05:41;2.38;;;0.35;;
72369;SDS011;60343;-32.030;115.880;2023-09-18T14:08:17;3.55;;;0.50;;
72369;SDS011;60343;-32.030;115.880;2023-09-18T14:10:52;5.68;;;0.60;;
72369;SDS011;60343;-32.030;115.880;2023-09-18T14:13:27;4.53;;;0.40;;
72369;SDS011;60343;-32.030;115.880;2023-09-18T14:16:02;5.55;;;0.73;;
72369;SDS011;60343;-32.030;115.880;2023-09-18T14:18:46;2.53;;;0.20;;
72369;SDS011;60343;-32.030;115.880;2023-09-18T14:21:21;1.33;;;0.35;;
72369;SDS011;60343;-32.030;115.880;2023-09-18T14:23:56;3.08;;;0.40;;
72369;SDS011;60343;-32.030;115.880;2023-09-18T14:26:32;6.43;;;0.40;;
72369;SDS011;60343;-32.030;115.880;2023-09-18T14:29:08;3.92;;;0.38;;
72369;SDS011;60343;-32.030;115.880;2023-09-18T14:31:43;4.63;;;0.28;;
72369;SDS011;60343;-32.030;115.880;2023-09-18T14:34:24;3.03;;;0.43;;
72369;SDS011;60343;-32.030;115.880;2023-09-18T14:37:01;2.92;;;0.28;;
72369;SDS011;60343;-32.030;115.880;2023-09-18T14:39:36;2.55;;;0.40;;
72369;SDS011;60343;-32.030;115.880;2023-09-18T14:42:12;3.42;;;0.40;;
72369;SDS011;60343;-32.030;115.880;2023-09-18T14:44:47;3.95;;;0.50;;
72369;SDS011;60343;-32.030;115.880;2023-09-18T14:47:22;2.03;;;0.20;;
72369;SDS011;60343;-32.030;115.880;2023-09-18T14:50:04;1.55;;;0.38;;
72369;SDS011;60343;-32.030;115.880;2023-09-18T14:52:39;2.40;;;0.32;;
72369;SDS011;60343;-32.030;115.880;2023-09-18T14:55:15;1.98;;;0.40;;
72369;SDS011;60343;-32.030;115.880;2023-09-18T14:57:50;4.72;;;0.40;;
72369;SDS011;60343;-32.030;115.880;2023-09-18T15:00:26;3.45;;;0.52;;
72369;SDS011;60343;-32.030;115.880;2023-09-18T15:03:01;2.28;;;0.35;;
72369;SDS011;60343;-32.030;115.880;2023-09-18T15:05:43;3.83;;;0.30;;
72369;SDS011;60343;-32.030;115.880;2023-09-18T15:08:18;3.28;;;0.40;;
72369;SDS011;60343;-32.030;115.880;2023-09-18T15:10:53;2.88;;;0.40;;
72369;SDS011;60343;-32.030;115.880;2023-09-18T15:13:29;2.05;;;0.30;;